Time;durP1;ratioP1;P1;durP2;ratioP2;P2;SDS_P1;SDS_P2;PMS_P1;PMS_P2;Temp;Humidity;BMP_temperature;BMP_pressure;BME280_temperature;BME280_humidity;BME280_pressure;Samples;Min_cycle;Max_cycle;Signal;HPM_P1;HPM_P2
2023/02/10 00:00:02;;;;;;;22.50;20.17;;;;;;;;;;514985;28;1533;-72
2023/02/10 00:00:17;;;;;;;22.80;20.30;;;;;;;;;;515909;28;1095;-71
2023/02/10 00:00:33;;;;;;;25.90;21.10;;;;;;;;;;517856;28;1314;-73
2023/02/10 00:00:48;;;;;;;26.70;21.17;;;;;;;;;;518750;28;1221;-72
2023/02/10 00:01:12;;;;;;;24.75;21.13;;;;;;;;;;518577;28;1528;-72
2023/02/10 00:01:28;;;;;;;24.60;21.08;;;;;;;;;;521323;28;1420;-73
2023/02/10 00:01:43;;;;;;;23.35;20.70;;;;;;;;;;523122;28;1265;-73
2023/02/10 00:01:59;;;;;;;23.17;20.67;;;;;;;;;;521360;28;1089;-73
2023/02/10 00:02:14;;;;;;;24.20;21.10;;;;;;;;;;518692;28;1477;-72
2023/02/10 00:02:29;;;;;;;24.75;21.33;;;;;;;;;;519974;28;1301;-72
2023/02/10 00:02:45;;;;;;;24.03;21.03;;;;;;;;;;521043;28;1219;-72
2023/02/10 00:03:00;;;;;;;24.00;21.27;;;;;;;;;;518742;28;1373;-72
2023/02/10 00:03:15;;;;;;;23.88;21.10;;;;;;;;;;520261;28;1034;-72
2023/02/10 00:03:31;;;;;;;23.47;20.93;;;;;;;;;;517619;28;1322;-72
2023/02/10 00:03:47;;;;;;;24.38;21.58;;;;;;;;;;517861;28;1183;-72
2023/02/10 00:04:03;;;;;;;25.58;22.23;;;;;;;;;;519092;28;1271;-72
2023/02/10 00:04:19;;;;;;;26.40;22.90;;;;;;;;;;520640;28;1334;-72
2023/02/10 00:04:34;;;;;;;27.30;23.37;;;;;;;;;;519823;28;1164;-72
2023/02/10 00:04:50;;;;;;;27.27;23.20;;;;;;;;;;520064;28;1268;-72
2023/02/10 00:05:06;;;;;;;27.02;22.92;;;;;;;;;;520246;28;1275;-72
2023/02/10 00:05:21;;;;;;;26.02;22.27;;;;;;;;;;520662;28;1164;-72
2023/02/10 00:05:37;;;;;;;25.37;22.27;;;;;;;;;;523713;28;1156;-73
2023/02/10 00:05:54;;;;;;;24.50;21.90;;;;;;;;;;521766;28;1228;-72
2023/02/10 00:06:10;;;;;;;24.13;21.52;;;;;;;;;;516716;28;1406;-72
2023/02/10 00:06:26;;;;;;;24.60;21.75;;;;;;;;;;517088;28;1604;-72
2023/02/10 00:06:42;;;;;;;24.83;21.42;;;;;;;;;;516588;28;1379;-72
2023/02/10 00:06:57;;;;;;;23.93;21.27;;;;;;;;;;515837;28;1398;-72
2023/02/10 00:07:13;;;;;;;24.60;22.00;;;;;;;;;;516995;28;1101;-71
2023/02/10 00:07:28;;;;;;;25.77;22.98;;;;;;;;;;517498;28;1378;-73
2023/02/10 00:07:43;;;;;;;25.83;22.90;;;;;;;;;;515913;28;1307;-72
2023/02/10 00:07:59;;;;;;;25.67;22.63;;;;;;;;;;518467;28;1237;-72
2023/02/10 00:08:14;;;;;;;24.83;22.07;;;;;;;;;;517592;28;1150;-72
2023/02/10 00:08:30;;;;;;;24.90;21.73;;;;;;;;;;518608;28;1293;-72
2023/02/10 00:08:50;;;;;;;25.80;22.23;;;;;;;;;;516400;28;1314;-73
2023/02/10 00:09:06;;;;;;;25.60;22.85;;;;;;;;;;519520;28;1225;-73
2023/02/10 00:09:22;;;;;;;25.30;22.60;;;;;;;;;;518669;28;1434;-72
2023/02/10 00:09:37;;;;;;;24.37;21.70;;;;;;;;;;519627;28;1196;-72
2023/02/10 00:09:52;;;;;;;23.83;21.23;;;;;;;;;;520043;28;1319;-73
2023/02/10 00:10:08;;;;;;;24.88;21.42;;;;;;;;;;519460;28;1319;-73
2023/02/10 00:10:23;;;;;;;24.53;21.30;;;;;;;;;;519810;28;1326;-72
2023/02/10 00:10:38;;;;;;;24.20;21.60;;;;;;;;;;521871;28;1237;-72
2023/02/10 00:10:58;;;;;;;24.52;21.90;;;;;;;;;;519574;28;1229;-73
2023/02/10 00:11:15;;;;;;;23.95;21.35;;;;;;;;;;519228;28;1181;-72
2023/02/10 00:12:07;;;;;;;23.60;21.08;;;;;;;;;;519766;28;995;-72
2023/02/10 00:12:22;;;;;;;23.77;21.00;;;;;;;;;;520257;28;1333;-72
2023/02/10 00:12:38;;;;;;;24.37;21.10;;;;;;;;;;518988;28;1302;-73
2023/02/10 00:12:53;;;;;;;24.50;21.03;;;;;;;;;;518041;28;1460;-73
2023/02/10 00:13:08;;;;;;;23.90;20.70;;;;;;;;;;519696;28;1163;-72
2023/02/10 00:13:24;;;;;;;23.40;20.77;;;;;;;;;;520391;28;1147;-73
2023/02/10 00:13:39;;;;;;;24.30;20.95;;;;;;;;;;518829;28;1349;-72
2023/02/10 00:13:55;;;;;;;24.00;21.00;;;;;;;;;;516417;28;1327;-72
2023/02/10 00:14:12;;;;;;;23.60;21.00;;;;;;;;;;515848;28;1764;-72
2023/02/10 00:14:29;;;;;;;24.35;21.08;;;;;;;;;;518157;28;1263;-73
2023/02/10 00:14:45;;;;;;;24.45;20.95;;;;;;;;;;518261;28;1573;-73
2023/02/10 00:15:00;;;;;;;23.50;20.90;;;;;;;;;;514465;28;1227;-73
2023/02/10 00:15:15;;;;;;;23.70;21.10;;;;;;;;;;515700;28;1276;-72
2023/02/10 00:15:31;;;;;;;25.00;21.20;;;;;;;;;;517169;28;1285;-73
2023/02/10 00:15:46;;;;;;;24.00;20.63;;;;;;;;;;517021;28;1254;-72
2023/02/10 00:16:03;;;;;;;23.20;20.70;;;;;;;;;;516447;28;1367;-72
2023/02/10 00:16:18;;;;;;;25.17;21.38;;;;;;;;;;511864;28;1306;-73
2023/02/10 00:16:33;;;;;;;25.77;21.50;;;;;;;;;;515815;28;1355;-73
2023/02/10 00:16:51;;;;;;;25.70;21.67;;;;;;;;;;515579;28;1449;-72
2023/02/10 00:17:06;;;;;;;25.55;21.75;;;;;;;;;;515183;28;1414;-72
2023/02/10 00:17:21;;;;;;;24.13;21.30;;;;;;;;;;516172;28;1208;-73
2023/02/10 00:17:37;;;;;;;23.77;20.93;;;;;;;;;;516411;28;1261;-73
2023/02/10 00:17:52;;;;;;;24.02;20.98;;;;;;;;;;519230;28;1267;-73
2023/02/10 00:18:07;;;;;;;24.60;21.50;;;;;;;;;;516452;28;1368;-73
2023/02/10 00:18:23;;;;;;;24.43;21.70;;;;;;;;;;520646;28;1256;-73
2023/02/10 00:18:38;;;;;;;24.03;21.43;;;;;;;;;;520458;28;1655;-72
2023/02/10 00:18:53;;;;;;;24.37;21.47;;;;;;;;;;519533;28;1067;-73
2023/02/10 00:19:09;;;;;;;25.20;21.42;;;;;;;;;;521443;28;1241;-73
2023/02/10 00:19:26;;;;;;;24.63;21.20;;;;;;;;;;521816;28;1277;-72
2023/02/10 00:19:41;;;;;;;24.52;20.98;;;;;;;;;;521145;28;1281;-72
2023/02/10 00:19:57;;;;;;;24.13;20.73;;;;;;;;;;519351;28;1174;-72
2023/02/10 00:20:12;;;;;;;23.30;20.80;;;;;;;;;;518583;28;1205;-72
2023/02/10 00:20:27;;;;;;;23.67;20.98;;;;;;;;;;517280;28;1511;-72
2023/02/10 00:20:43;;;;;;;24.37;21.47;;;;;;;;;;518928;28;1345;-72
2023/02/10 00:21:10;;;;;;;24.00;21.40;;;;;;;;;;520060;28;1340;-73
2023/02/10 00:21:25;;;;;;;23.98;21.13;;;;;;;;;;517469;28;1389;-72
2023/02/10 00:21:40;;;;;;;23.67;20.90;;;;;;;;;;519602;28;1355;-73
2023/02/10 00:21:55;;;;;;;22.75;20.30;;;;;;;;;;520961;28;1348;-72
2023/02/10 00:22:11;;;;;;;23.73;20.53;;;;;;;;;;518056;28;1381;-72
2023/02/10 00:22:26;;;;;;;24.60;20.60;;;;;;;;;;517947;28;1507;-73
2023/02/10 00:22:41;;;;;;;24.45;20.88;;;;;;;;;;516010;28;1244;-72
2023/02/10 00:22:57;;;;;;;23.47;20.77;;;;;;;;;;515399;28;1366;-73
2023/02/10 00:23:12;;;;;;;23.87;20.73;;;;;;;;;;517957;28;1363;-72
2023/02/10 00:23:27;;;;;;;24.75;20.77;;;;;;;;;;516393;28;1359;-72
2023/02/10 00:23:43;;;;;;;25.67;21.20;;;;;;;;;;514626;28;1115;-72
2023/02/10 00:23:58;;;;;;;25.48;21.27;;;;;;;;;;515161;28;1256;-72
2023/02/10 00:24:13;;;;;;;24.13;20.27;;;;;;;;;;513284;28;1381;-72
2023/02/10 00:24:29;;;;;;;23.47;20.00;;;;;;;;;;516538;28;1213;-73
2023/02/10 00:24:44;;;;;;;23.00;20.50;;;;;;;;;;517842;28;1233;-73
2023/02/10 00:24:59;;;;;;;23.70;20.90;;;;;;;;;;518062;28;1316;-72
2023/02/10 00:25:15;;;;;;;23.60;20.73;;;;;;;;;;518153;28;1211;-72
2023/02/10 00:25:30;;;;;;;24.13;21.02;;;;;;;;;;519756;28;1398;-73
2023/02/10 00:25:45;;;;;;;25.77;21.30;;;;;;;;;;520021;28;1465;-72
2023/02/10 00:26:05;;;;;;;25.10;20.87;;;;;;;;;;517174;28;1286;-73
2023/02/10 00:26:21;;;;;;;23.40;20.63;;;;;;;;;;516754;28;1133;-72
2023/02/10 00:26:36;;;;;;;23.17;20.30;;;;;;;;;;518002;28;1239;-72
2023/02/10 00:26:52;;;;;;;23.87;20.60;;;;;;;;;;518381;28;1360;-73
2023/02/10 00:27:07;;;;;;;24.20;20.73;;;;;;;;;;518879;28;1586;-72
2023/02/10 00:27:23;;;;;;;23.90;20.67;;;;;;;;;;518112;28;1248;-73
2023/02/10 00:27:39;;;;;;;24.60;21.27;;;;;;;;;;515347;28;1406;-72
2023/02/10 00:27:54;;;;;;;23.93;21.33;;;;;;;;;;514029;28;1249;-72
2023/02/10 00:28:10;;;;;;;24.33;21.47;;;;;;;;;;513819;28;1580;-72
2023/02/10 00:28:25;;;;;;;25.40;21.60;;;;;;;;;;516067;28;1415;-72
2023/02/10 00:28:41;;;;;;;24.15;21.10;;;;;;;;;;513088;28;1393;-72
2023/02/10 00:28:56;;;;;;;24.03;20.87;;;;;;;;;;514482;28;2063;-72
2023/02/10 00:29:11;;;;;;;23.03;20.53;;;;;;;;;;515037;28;1177;-73
2023/02/10 00:29:27;;;;;;;23.75;20.60;;;;;;;;;;519276;28;1411;-73
2023/02/10 00:29:42;;;;;;;25.23;21.00;;;;;;;;;;517586;28;1216;-72
2023/02/10 00:29:58;;;;;;;23.42;20.38;;;;;;;;;;520129;28;1236;-73
2023/02/10 00:30:13;;;;;;;22.90;19.93;;;;;;;;;;519164;28;1166;-72
2023/02/10 00:30:29;;;;;;;23.60;20.63;;;;;;;;;;521411;28;1240;-73
2023/02/10 00:30:44;;;;;;;24.33;21.10;;;;;;;;;;520644;28;1327;-73
2023/02/10 00:31:05;;;;;;;25.17;21.23;;;;;;;;;;519292;28;1315;-72
2023/02/10 00:31:21;;;;;;;23.45;20.42;;;;;;;;;;518779;28;1631;-73
2023/02/10 00:31:36;;;;;;;22.85;20.35;;;;;;;;;;520042;28;1271;-72
2023/02/10 00:31:52;;;;;;;22.67;20.25;;;;;;;;;;519879;28;1481;-73
2023/02/10 00:32:07;;;;;;;22.77;20.35;;;;;;;;;;520054;28;1358;-72
2023/02/10 00:32:23;;;;;;;24.43;21.13;;;;;;;;;;519034;28;1225;-72
2023/02/10 00:32:40;;;;;;;24.83;21.10;;;;;;;;;;519607;28;1161;-73
2023/02/10 00:32:55;;;;;;;24.77;21.33;;;;;;;;;;517352;28;1336;-73
2023/02/10 00:33:10;;;;;;;23.83;21.05;;;;;;;;;;517151;28;1191;-72
2023/02/10 00:33:26;;;;;;;23.63;20.77;;;;;;;;;;517701;28;1377;-72
2023/02/10 00:33:41;;;;;;;25.27;21.27;;;;;;;;;;516820;28;1288;-72
2023/02/10 00:33:57;;;;;;;24.65;21.05;;;;;;;;;;515843;28;1337;-73
2023/02/10 00:34:14;;;;;;;23.13;20.20;;;;;;;;;;513518;28;1284;-72
2023/02/10 00:34:30;;;;;;;22.33;19.83;;;;;;;;;;519892;28;1255;-73
2023/02/10 00:34:45;;;;;;;22.85;20.13;;;;;;;;;;522884;28;1393;-72
2023/02/10 00:35:01;;;;;;;23.17;20.67;;;;;;;;;;519509;28;1473;-72
2023/02/10 00:35:16;;;;;;;24.65;20.75;;;;;;;;;;519778;28;1241;-73
2023/02/10 00:35:32;;;;;;;24.97;20.53;;;;;;;;;;519766;28;1146;-73
2023/02/10 00:35:47;;;;;;;23.45;20.50;;;;;;;;;;519680;28;1429;-73
2023/02/10 00:36:08;;;;;;;23.40;20.63;;;;;;;;;;518690;28;1403;-72
2023/02/10 00:36:24;;;;;;;23.20;20.17;;;;;;;;;;519405;28;1205;-73
2023/02/10 00:36:40;;;;;;;23.80;20.50;;;;;;;;;;517943;28;1314;-73
2023/02/10 00:36:55;;;;;;;23.95;21.30;;;;;;;;;;519861;28;1321;-72
2023/02/10 00:37:11;;;;;;;24.77;20.87;;;;;;;;;;518587;28;1460;-72
2023/02/10 00:37:26;;;;;;;24.52;20.55;;;;;;;;;;518410;28;1319;-72
2023/02/10 00:37:42;;;;;;;23.33;20.33;;;;;;;;;;522254;28;1223;-73
2023/02/10 00:37:57;;;;;;;23.75;20.30;;;;;;;;;;520643;28;1207;-73
2023/02/10 00:38:12;;;;;;;24.33;20.30;;;;;;;;;;521707;28;1290;-72
2023/02/10 00:38:28;;;;;;;23.23;20.52;;;;;;;;;;523182;28;1274;-72
2023/02/10 00:38:44;;;;;;;23.30;20.80;;;;;;;;;;522141;28;1057;-72
2023/02/10 00:38:59;;;;;;;24.98;21.20;;;;;;;;;;520461;28;1503;-72
2023/02/10 00:39:15;;;;;;;24.67;21.10;;;;;;;;;;516681;28;1406;-72
2023/02/10 00:39:31;;;;;;;23.90;20.67;;;;;;;;;;517778;28;1287;-72
2023/02/10 00:39:46;;;;;;;25.80;21.03;;;;;;;;;;516250;28;1527;-74
2023/02/10 00:40:02;;;;;;;24.13;20.73;;;;;;;;;;516907;28;1311;-72
2023/02/10 00:40:18;;;;;;;23.30;20.60;;;;;;;;;;520081;28;1253;-72
2023/02/10 00:40:33;;;;;;;24.03;20.67;;;;;;;;;;519508;28;1247;-72
2023/02/10 00:40:48;;;;;;;22.92;19.90;;;;;;;;;;522354;28;1227;-72
2023/02/10 00:41:05;;;;;;;22.27;19.60;;;;;;;;;;521091;28;1228;-73
2023/02/10 00:41:22;;;;;;;23.33;20.15;;;;;;;;;;520958;28;1399;-72
2023/02/10 00:41:37;;;;;;;22.85;19.80;;;;;;;;;;518089;28;1275;-72
2023/02/10 00:41:53;;;;;;;22.17;19.83;;;;;;;;;;517699;28;1149;-73
2023/02/10 00:42:08;;;;;;;22.10;19.70;;;;;;;;;;517239;28;1277;-72
2023/02/10 00:42:23;;;;;;;22.70;19.67;;;;;;;;;;516730;28;1310;-72
2023/02/10 00:42:39;;;;;;;22.53;19.87;;;;;;;;;;519943;28;1330;-72
2023/02/10 00:42:54;;;;;;;23.20;19.97;;;;;;;;;;521565;28;1287;-72
2023/02/10 00:43:09;;;;;;;22.25;19.38;;;;;;;;;;519505;28;1336;-72
2023/02/10 00:43:24;;;;;;;21.43;19.23;;;;;;;;;;517977;28;1217;-72
2023/02/10 00:43:40;;;;;;;22.10;19.80;;;;;;;;;;519474;28;1426;-72
2023/02/10 00:43:55;;;;;;;22.23;19.73;;;;;;;;;;518492;28;1584;-72
2023/02/10 00:44:11;;;;;;;22.93;19.87;;;;;;;;;;522294;28;1350;-72
2023/02/10 00:44:26;;;;;;;22.75;19.80;;;;;;;;;;516957;28;1733;-72
2023/02/10 00:44:41;;;;;;;22.57;20.07;;;;;;;;;;517489;28;1224;-72
2023/02/10 00:44:57;;;;;;;22.47;20.07;;;;;;;;;;519117;28;1305;-72
2023/02/10 00:45:12;;;;;;;23.48;20.10;;;;;;;;;;518750;28;1224;-72
2023/02/10 00:45:27;;;;;;;23.43;20.37;;;;;;;;;;519554;28;1187;-73
2023/02/10 00:45:43;;;;;;;22.07;19.67;;;;;;;;;;521290;28;1190;-72
2023/02/10 00:45:58;;;;;;;22.05;19.65;;;;;;;;;;520259;28;1234;-72
2023/02/10 00:46:16;;;;;;;22.97;20.00;;;;;;;;;;520239;28;1191;-72
2023/02/10 00:46:32;;;;;;;23.27;19.45;;;;;;;;;;520806;28;1465;-73
2023/02/10 00:46:47;;;;;;;22.10;19.02;;;;;;;;;;518306;28;1414;-72
2023/02/10 00:47:02;;;;;;;21.17;18.83;;;;;;;;;;516218;28;1326;-72
2023/02/10 00:47:18;;;;;;;21.97;19.23;;;;;;;;;;518008;28;1220;-72
2023/02/10 00:47:33;;;;;;;22.85;19.98;;;;;;;;;;515254;28;1255;-72
2023/02/10 00:47:49;;;;;;;23.53;20.27;;;;;;;;;;515399;28;1229;-72
2023/02/10 00:48:05;;;;;;;22.70;19.88;;;;;;;;;;514801;28;1359;-73
2023/02/10 00:48:20;;;;;;;21.92;19.52;;;;;;;;;;517640;28;1245;-72
2023/02/10 00:48:35;;;;;;;22.83;19.77;;;;;;;;;;517732;28;1233;-73
2023/02/10 00:48:51;;;;;;;23.90;20.00;;;;;;;;;;518268;28;1983;-72
2023/02/10 00:49:06;;;;;;;24.07;20.27;;;;;;;;;;515806;28;1336;-72
2023/02/10 00:49:21;;;;;;;23.37;20.33;;;;;;;;;;516089;28;1230;-73
2023/02/10 00:49:36;;;;;;;22.70;20.30;;;;;;;;;;516218;28;1296;-72
2023/02/10 00:49:52;;;;;;;22.47;20.03;;;;;;;;;;517655;28;1349;-72
2023/02/10 00:50:08;;;;;;;22.40;19.52;;;;;;;;;;516001;28;1241;-72
2023/02/10 00:50:23;;;;;;;23.23;19.43;;;;;;;;;;512177;28;1299;-72
2023/02/10 00:50:38;;;;;;;22.65;19.60;;;;;;;;;;515462;28;1383;-72
2023/02/10 00:50:54;;;;;;;22.37;19.87;;;;;;;;;;517323;28;1220;-72
2023/02/10 00:51:10;;;;;;;23.50;19.97;;;;;;;;;;517075;28;1442;-72
2023/02/10 00:51:25;;;;;;;23.85;19.85;;;;;;;;;;517126;28;1346;-72
2023/02/10 00:51:41;;;;;;;23.50;19.50;;;;;;;;;;518612;28;1301;-72
2023/02/10 00:51:57;;;;;;;22.67;19.25;;;;;;;;;;520150;28;1283;-72
2023/02/10 00:52:12;;;;;;;22.93;19.90;;;;;;;;;;520258;28;1293;-72
2023/02/10 00:52:27;;;;;;;23.63;20.33;;;;;;;;;;519066;28;1210;-72
2023/02/10 00:52:43;;;;;;;22.80;20.03;;;;;;;;;;518152;28;1442;-72
2023/02/10 00:52:58;;;;;;;22.70;20.20;;;;;;;;;;518798;28;1551;-72
2023/02/10 00:53:13;;;;;;;22.92;20.15;;;;;;;;;;519440;28;1176;-72
2023/02/10 00:53:29;;;;;;;23.13;19.93;;;;;;;;;;519230;28;1176;-72
2023/02/10 00:53:45;;;;;;;22.52;19.65;;;;;;;;;;519853;28;1361;-72
2023/02/10 00:54:00;;;;;;;22.87;19.93;;;;;;;;;;518691;28;1257;-72
2023/02/10 00:54:15;;;;;;;23.40;20.02;;;;;;;;;;517936;28;1181;-73
2023/02/10 00:54:31;;;;;;;22.83;19.60;;;;;;;;;;519374;28;1138;-73
2023/02/10 00:54:46;;;;;;;22.60;19.33;;;;;;;;;;521699;28;1261;-72
2023/02/10 00:55:01;;;;;;;22.23;19.60;;;;;;;;;;519946;28;1230;-72
2023/02/10 00:55:17;;;;;;;22.43;19.87;;;;;;;;;;519553;28;1406;-73
2023/02/10 00:55:32;;;;;;;21.75;19.17;;;;;;;;;;517580;28;1233;-73
2023/02/10 00:55:47;;;;;;;21.33;19.03;;;;;;;;;;518239;28;1302;-73
2023/02/10 00:56:03;;;;;;;21.43;19.13;;;;;;;;;;520437;28;1388;-73
2023/02/10 00:56:20;;;;;;;21.13;18.83;;;;;;;;;;518880;28;1131;-72
2023/02/10 00:56:35;;;;;;;22.30;19.77;;;;;;;;;;517423;28;1660;-72
2023/02/10 00:56:50;;;;;;;23.30;20.30;;;;;;;;;;517691;28;1333;-73
2023/02/10 00:57:06;;;;;;;22.47;19.83;;;;;;;;;;516450;28;1445;-73
2023/02/10 00:57:21;;;;;;;22.15;19.55;;;;;;;;;;515757;28;1228;-72
2023/02/10 00:57:37;;;;;;;21.58;19.05;;;;;;;;;;516373;28;1240;-73
2023/02/10 00:57:52;;;;;;;21.57;19.20;;;;;;;;;;516438;28;1221;-72
2023/02/10 00:58:07;;;;;;;22.57;19.60;;;;;;;;;;520165;28;1476;-73
2023/02/10 00:58:23;;;;;;;22.73;19.25;;;;;;;;;;517505;28;1278;-72
2023/02/10 00:58:39;;;;;;;21.92;19.38;;;;;;;;;;515322;28;1247;-72
2023/02/10 00:58:54;;;;;;;21.77;19.43;;;;;;;;;;516677;28;1347;-73
2023/02/10 00:59:12;;;;;;;22.23;19.30;;;;;;;;;;515849;28;1215;-73
2023/02/10 00:59:28;;;;;;;22.38;19.60;;;;;;;;;;517772;28;1605;-72
2023/02/10 00:59:43;;;;;;;21.75;19.25;;;;;;;;;;518284;28;1267;-72
2023/02/10 00:59:58;;;;;;;20.67;18.47;;;;;;;;;;519704;28;1304;-72
2023/02/10 01:00:14;;;;;;;21.20;18.95;;;;;;;;;;520302;28;1208;-72
2023/02/10 01:00:30;;;;;;;21.60;19.30;;;;;;;;;;518426;28;1212;-72
2023/02/10 01:00:45;;;;;;;21.40;19.10;;;;;;;;;;520801;28;1290;-73
2023/02/10 01:01:01;;;;;;;22.33;19.75;;;;;;;;;;517344;28;1475;-73
2023/02/10 01:01:16;;;;;;;23.93;20.10;;;;;;;;;;517139;28;1360;-72
2023/02/10 01:01:31;;;;;;;23.07;19.67;;;;;;;;;;518017;28;1435;-73
2023/02/10 01:01:47;;;;;;;21.98;19.45;;;;;;;;;;517785;28;1453;-72
2023/02/10 01:02:02;;;;;;;23.30;20.10;;;;;;;;;;521331;28;1331;-72
2023/02/10 01:02:17;;;;;;;23.60;20.40;;;;;;;;;;518851;28;1768;-72
2023/02/10 01:02:33;;;;;;;22.50;20.05;;;;;;;;;;518818;28;1372;-72
2023/02/10 01:02:48;;;;;;;22.10;19.70;;;;;;;;;;517375;28;1392;-72
2023/02/10 01:03:03;;;;;;;21.77;19.15;;;;;;;;;;517055;28;1129;-72
2023/02/10 01:03:19;;;;;;;22.50;19.13;;;;;;;;;;517549;28;1430;-73
2023/02/10 01:03:34;;;;;;;22.90;19.92;;;;;;;;;;516072;28;1278;-72
2023/02/10 01:03:50;;;;;;;22.70;20.20;;;;;;;;;;516448;28;1218;-72
2023/02/10 01:04:05;;;;;;;23.13;19.77;;;;;;;;;;518741;28;1409;-72
2023/02/10 01:04:20;;;;;;;22.80;19.70;;;;;;;;;;517836;28;1461;-72
2023/02/10 01:04:36;;;;;;;22.00;19.60;;;;;;;;;;516747;28;1232;-73
2023/02/10 01:04:51;;;;;;;22.20;19.65;;;;;;;;;;517262;28;1520;-73
2023/02/10 01:05:07;;;;;;;22.50;19.63;;;;;;;;;;519875;28;1585;-73
2023/02/10 01:05:22;;;;;;;22.70;19.65;;;;;;;;;;517071;28;1090;-73
2023/02/10 01:05:37;;;;;;;22.83;19.70;;;;;;;;;;514821;28;1445;-73
2023/02/10 01:05:53;;;;;;;22.03;19.57;;;;;;;;;;519087;28;1330;-72
2023/02/10 01:06:10;;;;;;;21.70;19.37;;;;;;;;;;521277;28;1356;-73
2023/02/10 01:06:25;;;;;;;21.90;19.50;;;;;;;;;;518311;28;1256;-72
2023/02/10 01:06:41;;;;;;;22.43;19.83;;;;;;;;;;517569;28;1235;-73
2023/02/10 01:06:57;;;;;;;22.23;19.55;;;;;;;;;;517858;28;1138;-72
2023/02/10 01:07:12;;;;;;;21.63;19.33;;;;;;;;;;518279;28;1336;-73
2023/02/10 01:07:29;;;;;;;22.00;19.60;;;;;;;;;;519160;28;1169;-72
2023/02/10 01:07:44;;;;;;;22.52;20.13;;;;;;;;;;516820;28;1326;-72
2023/02/10 01:07:59;;;;;;;22.27;19.87;;;;;;;;;;517484;28;1480;-72
2023/02/10 01:08:15;;;;;;;21.17;18.87;;;;;;;;;;518126;28;1441;-74
2023/02/10 01:08:30;;;;;;;21.02;18.63;;;;;;;;;;520060;28;1279;-72
2023/02/10 01:08:46;;;;;;;21.40;19.10;;;;;;;;;;520907;28;1173;-73
2023/02/10 01:09:01;;;;;;;21.83;19.40;;;;;;;;;;521002;28;1977;-73
2023/02/10 01:09:17;;;;;;;22.43;19.40;;;;;;;;;;518847;28;1305;-72
2023/02/10 01:09:32;;;;;;;21.58;19.20;;;;;;;;;;519692;28;1444;-72
2023/02/10 01:09:48;;;;;;;21.35;18.90;;;;;;;;;;520589;28;1283;-73
2023/02/10 01:10:03;;;;;;;21.90;18.53;;;;;;;;;;520299;28;1253;-73
2023/02/10 01:10:19;;;;;;;21.33;18.65;;;;;;;;;;517514;28;1402;-73
2023/02/10 01:10:35;;;;;;;21.53;18.87;;;;;;;;;;516248;28;1181;-72
2023/02/10 01:10:58;;;;;;;22.20;19.33;;;;;;;;;;517096;28;1453;-72
2023/02/10 01:11:14;;;;;;;22.77;20.00;;;;;;;;;;512946;28;1167;-73
2023/02/10 01:11:30;;;;;;;22.25;19.80;;;;;;;;;;515008;28;1216;-73
2023/02/10 01:11:46;;;;;;;22.45;19.73;;;;;;;;;;516019;28;1258;-72
2023/02/10 01:12:01;;;;;;;23.10;20.00;;;;;;;;;;517571;28;1400;-72
2023/02/10 01:12:16;;;;;;;22.77;19.93;;;;;;;;;;517782;28;1444;-72
2023/02/10 01:12:32;;;;;;;22.55;19.95;;;;;;;;;;518544;28;1377;-72
2023/02/10 01:12:47;;;;;;;22.27;19.60;;;;;;;;;;517078;28;1267;-72
2023/02/10 01:13:05;;;;;;;21.23;18.80;;;;;;;;;;515832;28;1213;-72
2023/02/10 01:13:20;;;;;;;21.30;18.80;;;;;;;;;;515714;28;1584;-73
2023/02/10 01:13:37;;;;;;;21.55;19.10;;;;;;;;;;517508;28;1257;-72
2023/02/10 01:13:52;;;;;;;21.33;19.00;;;;;;;;;;519248;28;1259;-73
2023/02/10 01:14:07;;;;;;;21.70;19.25;;;;;;;;;;518948;28;1283;-72
2023/02/10 01:14:24;;;;;;;23.50;20.03;;;;;;;;;;515298;28;1323;-72
2023/02/10 01:14:39;;;;;;;23.13;19.80;;;;;;;;;;513906;28;1380;-72
2023/02/10 01:14:54;;;;;;;22.05;19.40;;;;;;;;;;517274;28;1407;-72
2023/02/10 01:15:10;;;;;;;21.73;19.30;;;;;;;;;;515108;28;1071;-73
2023/02/10 01:15:25;;;;;;;21.90;19.50;;;;;;;;;;515149;28;1245;-73
2023/02/10 01:15:45;;;;;;;21.90;19.60;;;;;;;;;;519066;28;1191;-73
2023/02/10 01:16:04;;;;;;;21.95;19.65;;;;;;;;;;517217;28;1402;-72
2023/02/10 01:16:19;;;;;;;21.52;19.23;;;;;;;;;;517897;28;1352;-72
2023/02/10 01:16:36;;;;;;;21.87;19.30;;;;;;;;;;518984;28;1350;-72
2023/02/10 01:16:51;;;;;;;22.38;19.70;;;;;;;;;;519709;28;1280;-73
2023/02/10 01:17:06;;;;;;;22.48;19.98;;;;;;;;;;521791;28;1219;-72
2023/02/10 01:17:21;;;;;;;23.30;20.07;;;;;;;;;;519388;28;1376;-73
2023/02/10 01:17:37;;;;;;;22.80;19.60;;;;;;;;;;518791;28;1390;-72
2023/02/10 01:17:52;;;;;;;22.67;19.52;;;;;;;;;;521371;28;1480;-74
2023/02/10 01:18:08;;;;;;;22.67;19.80;;;;;;;;;;519492;28;1229;-73
2023/02/10 01:18:23;;;;;;;22.23;19.80;;;;;;;;;;520715;28;1386;-74
2023/02/10 01:18:40;;;;;;;22.53;20.03;;;;;;;;;;517223;28;1333;-73
2023/02/10 01:18:55;;;;;;;24.08;20.40;;;;;;;;;;517974;28;1282;-73
2023/02/10 01:19:11;;;;;;;24.20;20.10;;;;;;;;;;515421;28;1355;-74
2023/02/10 01:19:26;;;;;;;24.00;19.90;;;;;;;;;;516073;28;1346;-74
2023/02/10 01:19:41;;;;;;;23.90;20.37;;;;;;;;;;517141;28;1205;-73
2023/02/10 01:19:57;;;;;;;23.52;20.98;;;;;;;;;;520545;28;1125;-74
2023/02/10 01:20:12;;;;;;;23.63;21.03;;;;;;;;;;518421;28;1277;-74
2023/02/10 01:20:27;;;;;;;23.00;20.50;;;;;;;;;;517487;28;1399;-73
2023/02/10 01:20:43;;;;;;;22.98;20.20;;;;;;;;;;515070;28;1212;-73
2023/02/10 01:20:58;;;;;;;22.60;20.20;;;;;;;;;;517487;28;1196;-73
2023/02/10 01:21:17;;;;;;;22.83;20.37;;;;;;;;;;518918;28;1229;-73
2023/02/10 01:21:33;;;;;;;23.60;20.40;;;;;;;;;;516456;28;1764;-73
2023/02/10 01:21:48;;;;;;;23.73;20.55;;;;;;;;;;519858;28;1291;-73
2023/02/10 01:22:04;;;;;;;22.92;20.42;;;;;;;;;;521885;28;1348;-74
2023/02/10 01:22:19;;;;;;;22.27;19.87;;;;;;;;;;521343;28;1192;-74
2023/02/10 01:22:35;;;;;;;22.67;19.83;;;;;;;;;;517343;28;1433;-73
2023/02/10 01:22:50;;;;;;;24.25;20.20;;;;;;;;;;515662;28;1291;-73
2023/02/10 01:23:06;;;;;;;25.40;20.63;;;;;;;;;;514693;28;1616;-74
2023/02/10 01:23:22;;;;;;;24.08;20.63;;;;;;;;;;519095;28;1416;-73
2023/02/10 01:23:37;;;;;;;23.23;20.30;;;;;;;;;;518427;28;1158;-73
2023/02/10 01:23:53;;;;;;;22.83;20.20;;;;;;;;;;520733;28;1267;-73
2023/02/10 01:24:09;;;;;;;22.97;20.47;;;;;;;;;;518803;28;1223;-74
2023/02/10 01:24:24;;;;;;;23.05;20.52;;;;;;;;;;520270;28;1568;-74
2023/02/10 01:24:39;;;;;;;22.38;19.90;;;;;;;;;;518377;28;1223;-74
2023/02/10 01:24:55;;;;;;;22.10;19.73;;;;;;;;;;516316;28;1193;-74
2023/02/10 01:25:10;;;;;;;22.53;20.13;;;;;;;;;;515787;28;1188;-73
2023/02/10 01:25:25;;;;;;;23.45;20.60;;;;;;;;;;516120;28;1178;-74
2023/02/10 01:25:40;;;;;;;23.70;20.43;;;;;;;;;;515550;28;1044;-74
2023/02/10 01:25:59;;;;;;;22.60;19.80;;;;;;;;;;518390;28;1327;-73
2023/02/10 01:26:15;;;;;;;22.73;20.13;;;;;;;;;;520078;28;1311;-73
2023/02/10 01:26:30;;;;;;;23.50;20.48;;;;;;;;;;520115;28;1387;-73
2023/02/10 01:26:45;;;;;;;23.65;20.13;;;;;;;;;;519991;28;1319;-73
2023/02/10 01:27:01;;;;;;;22.90;19.93;;;;;;;;;;521484;28;1150;-72
2023/02/10 01:27:16;;;;;;;23.40;20.47;;;;;;;;;;519700;28;1295;-73
2023/02/10 01:27:31;;;;;;;23.53;20.63;;;;;;;;;;520520;28;1256;-73
2023/02/10 01:27:47;;;;;;;22.97;20.10;;;;;;;;;;516920;28;1231;-74
2023/02/10 01:28:03;;;;;;;22.33;19.90;;;;;;;;;;517478;28;1461;-73
2023/02/10 01:28:19;;;;;;;22.42;20.02;;;;;;;;;;518262;28;1206;-74
2023/02/10 01:28:36;;;;;;;23.40;20.45;;;;;;;;;;516464;28;1505;-73
2023/02/10 01:28:52;;;;;;;23.23;20.50;;;;;;;;;;516464;28;1486;-73
2023/02/10 01:29:07;;;;;;;22.77;20.10;;;;;;;;;;516041;28;2017;-73
2023/02/10 01:29:22;;;;;;;22.50;19.87;;;;;;;;;;514548;28;1199;-73
2023/02/10 01:29:38;;;;;;;23.30;20.05;;;;;;;;;;518738;28;1382;-73
2023/02/10 01:29:53;;;;;;;24.17;20.43;;;;;;;;;;516457;28;1153;-73
2023/02/10 01:30:09;;;;;;;22.93;19.73;;;;;;;;;;519117;28;1377;-73
2023/02/10 01:30:24;;;;;;;21.55;19.17;;;;;;;;;;521724;28;1406;-73
2023/02/10 01:30:39;;;;;;;21.40;19.10;;;;;;;;;;517511;28;1073;-73
2023/02/10 01:30:55;;;;;;;21.95;19.65;;;;;;;;;;517699;28;1285;-73
2023/02/10 01:31:14;;;;;;;22.50;20.10;;;;;;;;;;516592;28;1259;-73
2023/02/10 01:31:29;;;;;;;22.10;19.73;;;;;;;;;;515083;28;1162;-73
2023/02/10 01:31:44;;;;;;;21.80;19.47;;;;;;;;;;517896;28;1370;-72
2023/02/10 01:32:00;;;;;;;22.02;19.48;;;;;;;;;;519531;28;1271;-73
2023/02/10 01:32:15;;;;;;;22.33;19.90;;;;;;;;;;521981;28;1315;-74
2023/02/10 01:32:30;;;;;;;23.37;19.97;;;;;;;;;;519983;28;1222;-74
2023/02/10 01:32:46;;;;;;;23.02;20.08;;;;;;;;;;521862;28;1231;-73
2023/02/10 01:33:01;;;;;;;22.67;20.27;;;;;;;;;;519003;28;1362;-73
2023/02/10 01:33:16;;;;;;;23.33;20.50;;;;;;;;;;517852;28;1284;-73
2023/02/10 01:33:32;;;;;;;23.80;20.80;;;;;;;;;;518838;28;1107;-73
2023/02/10 01:33:51;;;;;;;23.60;20.17;;;;;;;;;;519828;28;1203;-74
2023/02/10 01:34:07;;;;;;;22.48;19.83;;;;;;;;;;516784;28;1462;-73
2023/02/10 01:34:23;;;;;;;22.40;19.97;;;;;;;;;;519315;28;1239;-72
2023/02/10 01:34:38;;;;;;;22.48;20.05;;;;;;;;;;515435;28;1397;-72
2023/02/10 01:34:54;;;;;;;22.50;20.00;;;;;;;;;;518395;28;1571;-72